Time;durP1;ratioP1;P1;durP2;ratioP2;P2;SDS_P1;SDS_P2;PMS_P1;PMS_P2;Temp;Humidity;BMP_temperature;BMP_pressure;BME280_temperature;BME280_humidity;BME280_pressure;Samples;Min_cycle;Max_cycle;Signal;HPM_P1;HPM_P2
2021/06/03 00:00:50;;;;;;;;;;;21.90;99.90;;;;;;5134254;27;19995;-74
2021/06/03 00:03:17;;;;;;;;;;;21.90;99.90;;;;;;5134271;27;19994;-75
2021/06/03 00:05:44;;;;;;;;;;;21.80;99.90;;;;;;5133795;28;19911;-75
2021/06/03 00:08:10;;;;;;;;;;;21.70;99.90;;;;;;5134387;28;19910;-75
2021/06/03 00:10:37;;;;;;;;;;;21.70;99.90;;;;;;5134562;28;20351;-75
2021/06/03 00:13:03;;;;;;;;;;;21.70;99.90;;;;;;5133624;28;20353;-75
2021/06/03 00:15:30;;;;;;;;;;;21.60;99.90;;;;;;5134535;28;19907;-75
2021/06/03 00:17:55;;;;;;;;;;;21.60;99.90;;;;;;5134072;28;20374;-75
2021/06/03 00:20:23;;;;;;;;;;;21.60;99.90;;;;;;5133581;28;19924;-75
2021/06/03 00:22:49;;;;;;;;;;;21.50;99.90;;;;;;5133931;28;19903;-75
2021/06/03 00:25:15;;;;;;;;;;;21.50;99.90;;;;;;5134139;28;19927;-75
2021/06/03 00:27:43;;;;;;;;;;;21.40;99.90;;;;;;5133324;28;19904;-74
2021/06/03 00:30:09;;;;;;;;;;;21.40;99.90;;;;;;5134050;28;19903;-74
2021/06/03 00:32:35;;;;;;;;;;;21.30;99.90;;;;;;5133054;28;19914;-74
2021/06/03 00:35:01;;;;;;;;;;;21.30;99.90;;;;;;5134153;28;20362;-75
2021/06/03 00:37:26;;;;;;;;;;;21.20;99.90;;;;;;5134102;28;20271;-74
2021/06/03 00:39:51;;;;;;;;;;;21.20;99.90;;;;;;5133086;28;20414;-74
2021/06/03 00:42:17;;;;;;;;;;;21.20;99.90;;;;;;5135853;27;19904;-75
2021/06/03 00:44:43;;;;;;;;;;;21.20;99.90;;;;;;5137766;27;19915;-75
2021/06/03 00:47:08;;;;;;;;;;;21.10;99.90;;;;;;5137012;27;19956;-75
2021/06/03 00:49:34;;;;;;;;;;;21.10;99.90;;;;;;5137727;27;19910;-75
2021/06/03 00:51:59;;;;;;;;;;;21.10;99.90;;;;;;5137645;27;19994;-74
2021/06/03 00:54:25;;;;;;;;;;;21.70;99.90;;;;;;5137079;27;19908;-74
2021/06/03 00:56:50;;;;;;;;;;;21.00;99.90;;;;;;5137810;27;20327;-75
2021/06/03 00:59:16;;;;;;;;;;;21.00;99.90;;;;;;5137856;27;19903;-75
2021/06/03 01:01:41;;;;;;;;;;;21.00;99.90;;;;;;5118349;27;19910;-75
2021/06/03 01:04:07;;;;;;;;;;;20.90;99.90;;;;;;5137766;27;19980;-75
2021/06/03 01:06:33;;;;;;;;;;;20.90;99.90;;;;;;5119294;27;20002;-75
2021/06/03 01:09:01;;;;;;;;;;;20.90;99.90;;;;;;5136906;27;19950;-74
2021/06/03 01:11:31;;;;;;;;;;;20.90;99.90;;;;;;5137561;27;19911;-74
2021/06/03 01:14:03;;;;;;;;;;;20.90;99.90;;;;;;5137384;27;19960;-75
2021/06/03 01:16:29;;;;;;;;;;;21.00;99.90;;;;;;5136882;27;19933;-75
2021/06/03 01:18:56;;;;;;;;;;;21.00;99.90;;;;;;5137555;27;19922;-75
2021/06/03 01:21:26;;;;;;;;;;;21.00;99.90;;;;;;5137209;27;19910;-75
2021/06/03 01:24:08;;;;;;;;;;;21.00;99.90;;;;;;5136511;27;19987;-74
2021/06/03 01:26:34;;;;;;;;;;;21.10;99.90;;;;;;5137293;27;19914;-74
2021/06/03 01:29:00;;;;;;;;;;;21.00;99.90;;;;;;5136625;27;19978;-74
2021/06/03 01:31:25;;;;;;;;;;;20.90;99.90;;;;;;5137106;27;20333;-74
2021/06/03 01:33:51;;;;;;;;;;;20.80;99.90;;;;;;5137143;27;19908;-74
2021/06/03 01:36:16;;;;;;;;;;;20.80;99.90;;;;;;5136293;27;19945;-74
2021/06/03 01:38:43;;;;;;;;;;;20.80;99.90;;;;;;5137156;27;20301;-74
2021/06/03 01:41:09;;;;;;;;;;;20.70;99.90;;;;;;5137000;27;19927;-74
2021/06/03 01:43:36;;;;;;;;;;;20.70;99.90;;;;;;5135945;27;19954;-74
2021/06/03 01:46:02;;;;;;;;;;;20.60;99.90;;;;;;5136865;27;19980;-75
2021/06/03 01:48:28;;;;;;;;;;;20.50;99.90;;;;;;5137036;27;19903;-74
2021/06/03 01:50:55;;;;;;;;;;;20.60;99.90;;;;;;5136047;27;19908;-74
2021/06/03 01:53:22;;;;;;;;;;;20.50;99.90;;;;;;5135422;27;19903;-74
2021/06/03 01:55:48;;;;;;;;;;;20.50;99.90;;;;;;5136773;27;20453;-74
2021/06/03 01:58:13;;;;;;;;;;;20.60;99.90;;;;;;5136042;27;20014;-74
2021/06/03 02:00:39;;;;;;;;;;;20.50;99.90;;;;;;5136780;27;20015;-74
2021/06/03 02:03:05;;;;;;;;;;;20.50;99.90;;;;;;5136774;27;19903;-74
2021/06/03 02:05:30;;;;;;;;;;;20.50;99.90;;;;;;5135955;27;19915;-75
2021/06/03 02:07:56;;;;;;;;;;;20.50;99.90;;;;;;5136592;27;19912;-74
2021/06/03 02:10:22;;;;;;;;;;;20.50;99.90;;;;;;5136419;27;19910;-74
2021/06/03 02:13:06;;;;;;;;;;;20.50;99.90;;;;;;5135891;27;19945;-74
2021/06/03 02:15:34;;;;;;;;;;;20.50;99.90;;;;;;5136258;27;19909;-75
2021/06/03 02:18:00;;;;;;;;;;;20.50;99.90;;;;;;5136383;27;19903;-76
2021/06/03 02:20:29;;;;;;;;;;;20.50;99.90;;;;;;5136119;27;19910;-75
2021/06/03 02:22:55;;;;;;;;;;;20.50;99.90;;;;;;5136367;27;20084;-74
2021/06/03 02:25:22;;;;;;;;;;;20.50;99.90;;;;;;5135158;27;20223;-74
2021/06/03 02:27:47;;;;;;;;;;;20.50;99.90;;;;;;5136216;27;19926;-75
2021/06/03 02:30:14;;;;;;;;;;;20.50;99.90;;;;;;5136158;27;20423;-74
2021/06/03 02:32:39;;;;;;;;;;;20.40;99.90;;;;;;5135365;27;20223;-74
2021/06/03 02:35:09;;;;;;;;;;;20.40;99.90;;;;;;5136031;27;19915;-74
2021/06/03 02:37:36;;;;;;;;;;;20.40;99.90;;;;;;5135737;27;20350;-74
2021/06/03 02:40:03;;;;;;;;;;;20.40;99.90;;;;;;5135128;27;20011;-74
2021/06/03 02:42:28;;;;;;;;;;;20.30;99.90;;;;;;5135753;27;19958;-74
2021/06/03 02:44:54;;;;;;;;;;;20.30;99.90;;;;;;5135765;27;19978;-75
2021/06/03 02:47:19;;;;;;;;;;;20.20;99.90;;;;;;5134893;27;19903;-75
2021/06/03 02:49:45;;;;;;;;;;;20.20;99.90;;;;;;5135669;27;19909;-75
2021/06/03 02:52:10;;;;;;;;;;;20.10;99.90;;;;;;5135478;27;19954;-74
2021/06/03 02:54:36;;;;;;;;;;;20.10;99.90;;;;;;5134677;27;19903;-74
2021/06/03 02:57:02;;;;;;;;;;;20.00;99.90;;;;;;5135726;27;19903;-74
2021/06/03 02:59:27;;;;;;;;;;;20.00;99.90;;;;;;5135539;27;19907;-75
2021/06/03 03:01:53;;;;;;;;;;;19.90;99.90;;;;;;5134658;27;20329;-75
2021/06/03 03:04:19;;;;;;;;;;;19.90;99.90;;;;;;5135526;27;19958;-76
2021/06/03 03:06:45;;;;;;;;;;;19.90;99.90;;;;;;5135411;27;19903;-74
2021/06/03 03:09:10;;;;;;;;;;;19.80;99.90;;;;;;5134458;27;19903;-74
2021/06/03 03:11:36;;;;;;;;;;;19.80;99.90;;;;;;5135264;27;19907;-74
2021/06/03 03:14:02;;;;;;;;;;;19.70;99.90;;;;;;5135352;27;19912;-75
2021/06/03 03:16:27;;;;;;;;;;;19.70;99.90;;;;;;5134557;27;19993;-75
2021/06/03 03:18:53;;;;;;;;;;;19.70;99.90;;;;;;5134862;27;20356;-75
2021/06/03 03:21:18;;;;;;;;;;;19.60;99.90;;;;;;5135138;27;19925;-76
2021/06/03 03:23:44;;;;;;;;;;;19.60;99.90;;;;;;5135023;27;19959;-75
2021/06/03 03:26:09;;;;;;;;;;;19.50;99.90;;;;;;5134888;27;19939;-75
2021/06/03 03:28:35;;;;;;;;;;;19.50;99.90;;;;;;5134118;27;19929;-75
2021/06/03 03:31:00;;;;;;;;;;;19.40;99.90;;;;;;5135103;27;20355;-76
2021/06/03 03:33:26;;;;;;;;;;;19.50;99.90;;;;;;5134744;27;19909;-75
2021/06/03 03:35:51;;;;;;;;;;;19.40;99.90;;;;;;5133655;27;19910;-73
2021/06/03 03:38:18;;;;;;;;;;;19.40;99.90;;;;;;5134795;27;20254;-75
2021/06/03 03:40:44;;;;;;;;;;;19.40;99.90;;;;;;5134738;27;19926;-74
2021/06/03 03:43:09;;;;;;;;;;;19.30;99.90;;;;;;5133759;27;19916;-74
2021/06/03 03:45:35;;;;;;;;;;;19.30;99.90;;;;;;5135133;27;20331;-74
2021/06/03 03:48:02;;;;;;;;;;;19.30;99.90;;;;;;5134690;27;19994;-75
2021/06/03 03:50:28;;;;;;;;;;;19.40;99.90;;;;;;5133601;27;19904;-75
2021/06/03 03:52:54;;;;;;;;;;;19.30;99.90;;;;;;5134742;27;20369;-75
2021/06/03 03:55:19;;;;;;;;;;;19.30;99.90;;;;;;5134521;27;19990;-76
2021/06/03 03:57:45;;;;;;;;;;;19.30;99.90;;;;;;5133681;27;19991;-75
2021/06/03 04:00:12;;;;;;;;;;;19.30;99.90;;;;;;5134249;27;19903;-75
2021/06/03 04:02:38;;;;;;;;;;;19.30;99.90;;;;;;5134435;27;20408;-75
2021/06/03 04:05:06;;;;;;;;;;;19.30;99.90;;;;;;5133579;28;19912;-74
2021/06/03 04:07:32;;;;;;;;;;;19.30;99.90;;;;;;5134052;28;20365;-75
2021/06/03 04:09:57;;;;;;;;;;;19.30;99.90;;;;;;5134378;28;19968;-74
2021/06/03 04:12:23;;;;;;;;;;;19.30;99.90;;;;;;5133920;28;19908;-77
2021/06/03 04:14:48;;;;;;;;;;;19.30;99.90;;;;;;5134080;28;19915;-74
2021/06/03 04:17:14;;;;;;;;;;;19.30;99.90;;;;;;5136356;27;19903;-76
2021/06/03 04:19:39;;;;;;;;;;;19.30;99.90;;;;;;5137672;27;19949;-77
2021/06/03 04:22:05;;;;;;;;;;;19.30;99.90;;;;;;5139227;27;19944;-75
2021/06/03 04:24:31;;;;;;;;;;;19.30;99.90;;;;;;5138751;27;20260;-76
2021/06/03 04:26:57;;;;;;;;;;;19.30;99.90;;;;;;5138016;27;20376;-76
2021/06/03 04:29:22;;;;;;;;;;;19.30;99.90;;;;;;5119981;27;19926;-76
2021/06/03 04:31:47;;;;;;;;;;;19.30;99.90;;;;;;5137637;27;20343;-76
2021/06/03 04:34:13;;;;;;;;;;;19.40;99.90;;;;;;5138445;27;19907;-75
2021/06/03 04:36:38;;;;;;;;;;;19.40;99.90;;;;;;5138404;27;19910;-75
2021/06/03 04:39:04;;;;;;;;;;;19.40;99.90;;;;;;5137641;27;19910;-76
2021/06/03 04:41:30;;;;;;;;;;;19.40;99.90;;;;;;5138164;27;19904;-75
2021/06/03 04:43:55;;;;;;;;;;;19.50;99.90;;;;;;5137812;27;19919;-75
2021/06/03 04:46:20;;;;;;;;;;;19.60;99.90;;;;;;5137102;27;19914;-76
2021/06/03 04:48:46;;;;;;;;;;;19.60;99.90;;;;;;5137766;27;19904;-75
2021/06/03 04:51:11;;;;;;;;;;;19.60;99.90;;;;;;5138130;27;19903;-76
2021/06/03 04:53:37;;;;;;;;;;;19.70;99.90;;;;;;5137250;27;19910;-76
2021/06/03 04:56:02;;;;;;;;;;;19.80;99.90;;;;;;5138074;27;19926;-75
2021/06/03 04:58:28;;;;;;;;;;;19.80;99.90;;;;;;5137784;27;19908;-75
2021/06/03 05:00:54;;;;;;;;;;;19.90;99.90;;;;;;5136829;27;19914;-74
2021/06/03 05:03:19;;;;;;;;;;;19.90;99.90;;;;;;5137833;27;19922;-75
2021/06/03 05:05:45;;;;;;;;;;;20.00;99.90;;;;;;5137801;27;19915;-75
2021/06/03 05:08:11;;;;;;;;;;;20.00;99.90;;;;;;5136880;27;19904;-75
2021/06/03 05:10:36;;;;;;;;;;;20.30;99.90;;;;;;5137668;27;20250;-75
2021/06/03 05:13:02;;;;;;;;;;;20.20;99.90;;;;;;5137743;27;19903;-75
2021/06/03 05:15:28;;;;;;;;;;;20.20;99.90;;;;;;5136666;27;19904;-75
2021/06/03 05:17:54;;;;;;;;;;;20.20;99.90;;;;;;5137220;27;19960;-75
2021/06/03 05:20:21;;;;;;;;;;;20.20;99.90;;;;;;5137474;27;20271;-75
2021/06/03 05:22:48;;;;;;;;;;;20.30;99.90;;;;;;5136581;27;19903;-74
2021/06/03 05:25:15;;;;;;;;;;;20.30;99.90;;;;;;5137274;27;20286;-74
2021/06/03 05:27:41;;;;;;;;;;;20.50;99.90;;;;;;5136917;27;19911;-74
2021/06/03 05:30:08;;;;;;;;;;;20.50;99.90;;;;;;5136773;27;19903;-74
2021/06/03 05:32:33;;;;;;;;;;;20.60;99.90;;;;;;5136945;27;19910;-75
2021/06/03 05:34:59;;;;;;;;;;;20.70;99.90;;;;;;5136320;27;19919;-75
2021/06/03 05:37:24;;;;;;;;;;;20.70;99.90;;;;;;5137236;27;19904;-74
2021/06/03 05:39:50;;;;;;;;;;;20.70;99.90;;;;;;5136952;27;19911;-74
2021/06/03 05:42:17;;;;;;;;;;;20.80;99.90;;;;;;5136126;27;19903;-74
2021/06/03 05:44:42;;;;;;;;;;;20.90;99.90;;;;;;5136492;27;19923;-76
2021/06/03 05:47:08;;;;;;;;;;;20.90;99.90;;;;;;5137116;27;19933;-76
2021/06/03 05:49:33;;;;;;;;;;;21.00;99.90;;;;;;5135852;27;20002;-76
2021/06/03 05:52:02;;;;;;;;;;;21.00;99.90;;;;;;5136618;27;19950;-76
2021/06/03 05:54:28;;;;;;;;;;;21.00;99.90;;;;;;5118157;27;20348;-74
2021/06/03 05:56:53;;;;;;;;;;;21.10;99.90;;;;;;5136063;27;19907;-75
2021/06/03 05:59:19;;;;;;;;;;;21.00;99.90;;;;;;5136768;27;20343;-76
2021/06/03 06:01:44;;;;;;;;;;;21.00;99.90;;;;;;5136903;27;19904;-76
2021/06/03 06:04:19;;;;;;;;;;;21.00;99.90;;;;;;5135731;27;19911;-76
2021/06/03 06:06:44;;;;;;;;;;;21.00;99.90;;;;;;5136718;27;19908;-76
2021/06/03 06:09:11;;;;;;;;;;;21.00;99.90;;;;;;5136954;27;19904;-75
2021/06/03 06:11:38;;;;;;;;;;;21.00;99.90;;;;;;5135909;27;19903;-76
2021/06/03 06:14:04;;;;;;;;;;;21.10;99.90;;;;;;5136387;27;19939;-75
2021/06/03 06:16:30;;;;;;;;;;;21.10;99.90;;;;;;5136603;27;19903;-75
2021/06/03 06:18:56;;;;;;;;;;;21.10;99.90;;;;;;5136059;27;19903;-75
2021/06/03 06:21:22;;;;;;;;;;;21.20;99.90;;;;;;5136190;27;19911;-75
2021/06/03 06:23:48;;;;;;;;;;;21.20;99.90;;;;;;5136413;27;20273;-76
2021/06/03 06:26:14;;;;;;;;;;;21.10;99.90;;;;;;5135667;27;19915;-75
2021/06/03 06:28:39;;;;;;;;;;;21.10;99.90;;;;;;5136509;27;19903;-76
2021/06/03 06:31:05;;;;;;;;;;;21.00;99.90;;;;;;5136188;27;20248;-76
2021/06/03 06:33:32;;;;;;;;;;;21.00;99.90;;;;;;5135706;27;20010;-76
2021/06/03 06:35:58;;;;;;;;;;;21.00;99.90;;;;;;5136162;27;19903;-75
2021/06/03 06:38:23;;;;;;;;;;;21.00;99.90;;;;;;5135455;27;19967;-74
2021/06/03 06:40:50;;;;;;;;;;;21.10;99.90;;;;;;5135173;27;19910;-74
2021/06/03 06:43:15;;;;;;;;;;;21.10;99.90;;;;;;5135539;27;19910;-74
2021/06/03 06:45:41;;;;;;;;;;;21.20;99.90;;;;;;5134951;27;20227;-75
2021/06/03 06:48:08;;;;;;;;;;;21.20;99.90;;;;;;5135987;27;19903;-75
2021/06/03 06:50:34;;;;;;;;;;;21.20;99.90;;;;;;5135895;27;20271;-75
2021/06/03 06:52:59;;;;;;;;;;;21.30;99.90;;;;;;5135332;27;20002;-74
2021/06/03 06:55:25;;;;;;;;;;;21.40;99.90;;;;;;5136166;27;19945;-76
2021/06/03 06:57:52;;;;;;;;;;;21.40;99.90;;;;;;5135972;27;19910;-75
2021/06/03 07:00:18;;;;;;;;;;;21.50;99.90;;;;;;5135701;27;20271;-75
2021/06/03 07:02:44;;;;;;;;;;;21.60;99.90;;;;;;5135688;27;19907;-75
2021/06/03 07:05:10;;;;;;;;;;;21.60;99.90;;;;;;5135597;27;19911;-75
2021/06/03 07:07:36;;;;;;;;;;;21.70;99.90;;;;;;5134929;27;19955;-76
2021/06/03 07:10:03;;;;;;;;;;;21.80;99.90;;;;;;5135810;27;20002;-74
2021/06/03 07:12:28;;;;;;;;;;;21.90;99.90;;;;;;5135091;27;20379;-75
2021/06/03 07:14:53;;;;;;;;;;;22.00;99.90;;;;;;5134896;27;20029;-75
2021/06/03 07:17:19;;;;;;;;;;;22.20;99.90;;;;;;5135333;27;19903;-75
2021/06/03 07:19:47;;;;;;;;;;;22.40;99.90;;;;;;5135309;27;19976;-75
2021/06/03 07:22:13;;;;;;;;;;;22.60;99.90;;;;;;5134506;27;19943;-75
2021/06/03 07:24:40;;;;;;;;;;;22.70;99.90;;;;;;5135313;27;19962;-75
2021/06/03 07:27:06;;;;;;;;;;;22.80;99.90;;;;;;5134765;27;20338;-75
2021/06/03 07:29:31;;;;;;;;;;;22.90;99.90;;;;;;5134101;27;19940;-74
2021/06/03 07:31:57;;;;;;;;;;;23.00;99.90;;;;;;5135001;27;19934;-74
2021/06/03 07:34:22;;;;;;;;;;;23.00;99.90;;;;;;5134788;27;19907;-77
2021/06/03 07:36:48;;;;;;;;;;;23.00;99.90;;;;;;5134092;27;20262;-76
2021/06/03 07:39:13;;;;;;;;;;;23.00;99.90;;;;;;5135021;27;19961;-76
2021/06/03 07:41:39;;;;;;;;;;;23.00;99.90;;;;;;5134397;27;19952;-76
2021/06/03 07:44:04;;;;;;;;;;;23.10;99.90;;;;;;5134643;27;19915;-76
2021/06/03 07:46:30;;;;;;;;;;;23.10;99.90;;;;;;5135340;27;19998;-75
2021/06/03 07:48:56;;;;;;;;;;;23.10;99.90;;;;;;5135185;27;19966;-76
2021/06/03 07:51:21;;;;;;;;;;;23.20;99.90;;;;;;5134771;27;20264;-76
2021/06/03 07:53:47;;;;;;;;;;;23.20;99.90;;;;;;5135137;27;19903;-76
2021/06/03 07:56:12;;;;;;;;;;;23.20;99.90;;;;;;5134426;27;19904;-76
2021/06/03 07:58:38;;;;;;;;;;;23.20;99.90;;;;;;5134849;27;20335;-76
2021/06/03 08:01:03;;;;;;;;;;;23.20;99.90;;;;;;5134727;27;19907;-76
2021/06/03 08:03:29;;;;;;;;;;;23.20;99.90;;;;;;5134161;27;19904;-76
2021/06/03 08:05:55;;;;;;;;;;;23.30;99.90;;;;;;5134167;28;19916;-76
2021/06/03 08:08:21;;;;;;;;;;;23.40;99.90;;;;;;5134562;27;19910;-76
2021/06/03 08:10:46;;;;;;;;;;;23.50;99.90;;;;;;5133722;28;19903;-76
2021/06/03 08:13:12;;;;;;;;;;;23.60;99.90;;;;;;5134549;28;19933;-76
2021/06/03 08:15:38;;;;;;;;;;;23.60;99.90;;;;;;5134375;28;20045;-75
2021/06/03 08:18:04;;;;;;;;;;;23.70;99.90;;;;;;5133729;28;19908;-75
2021/06/03 08:20:37;;;;;;;;;;;23.70;99.90;;;;;;5134154;28;19947;-76
2021/06/03 08:23:06;;;;;;;;;;;23.70;99.90;;;;;;5135117;28;20330;-75
2021/06/03 08:25:32;;;;;;;;;;;23.80;99.90;;;;;;5134012;28;19919;-76
2021/06/03 08:27:58;;;;;;;;;;;23.80;99.90;;;;;;5134634;28;19903;-74
2021/06/03 08:30:24;;;;;;;;;;;23.70;99.90;;;;;;5134539;28;20406;-74
2021/06/03 08:32:50;;;;;;;;;;;23.80;99.90;;;;;;5133494;28;19903;-75
2021/06/03 08:35:17;;;;;;;;;;;23.80;99.90;;;;;;5134235;28;20243;-75
2021/06/03 08:37:43;;;;;;;;;;;23.80;99.90;;;;;;5134337;28;19910;-75
2021/06/03 08:40:09;;;;;;;;;;;23.80;99.90;;;;;;5133707;28;20244;-73
2021/06/03 08:42:35;;;;;;;;;;;23.80;99.90;;;;;;5133893;28;19948;-75
2021/06/03 08:45:01;;;;;;;;;;;23.80;99.90;;;;;;5132959;28;19915;-74
2021/06/03 08:47:29;;;;;;;;;;;23.80;99.90;;;;;;5134071;28;19903;-76
2021/06/03 08:49:54;;;;;;;;;;;23.80;99.90;;;;;;5133782;28;20335;-75
2021/06/03 08:52:20;;;;;;;;;;;23.80;99.90;;;;;;5133639;28;19997;-76
2021/06/03 08:54:45;;;;;;;;;;;23.90;99.90;;;;;;5134332;28;19959;-75
2021/06/03 08:57:11;;;;;;;;;;;23.90;99.90;;;;;;5133981;28;19903;-75
2021/06/03 08:59:37;;;;;;;;;;;23.90;99.90;;;;;;5132939;28;19942;-76
2021/06/03 09:02:03;;;;;;;;;;;23.90;99.90;;;;;;5133967;27;19904;-75
2021/06/03 09:04:28;;;;;;;;;;;24.00;99.90;;;;;;5137839;27;19921;-75
2021/06/03 09:06:54;;;;;;;;;;;24.00;99.90;;;;;;5136773;27;20335;-74
2021/06/03 09:09:27;;;;;;;;;;;24.10;99.90;;;;;;5137732;27;20263;-75
2021/06/03 09:12:11;;;;;;;;;;;24.10;99.90;;;;;;5137661;27;19903;-75
2021/06/03 09:14:37;;;;;;;;;;;24.10;99.90;;;;;;5136621;27;19910;-76
2021/06/03 09:17:03;;;;;;;;;;;24.20;99.90;;;;;;5137957;27;19903;-76
2021/06/03 09:19:28;;;;;;;;;;;24.40;99.90;;;;;;5137169;27;19914;-75
2021/06/03 09:21:54;;;;;;;;;;;24.40;99.90;;;;;;5136711;27;19910;-75
2021/06/03 09:24:21;;;;;;;;;;;24.50;99.90;;;;;;5137422;27;19962;-75
2021/06/03 09:26:46;;;;;;;;;;;24.60;99.90;;;;;;5137093;27;19910;-75
2021/06/03 09:29:19;;;;;;;;;;;24.60;99.90;;;;;;5136211;27;19903;-74
2021/06/03 09:31:44;;;;;;;;;;;24.80;99.90;;;;;;5136943;27;19911;-75
2021/06/03 09:34:14;;;;;;;;;;;24.90;99.90;;;;;;5135800;27;19986;-75
2021/06/03 09:36:42;;;;;;;;;;;25.00;99.90;;;;;;5136838;27;19910;-75
2021/06/03 09:39:13;;;;;;;;;;;25.20;99.90;;;;;;5136948;27;19911;-76
2021/06/03 09:41:58;;;;;;;;;;;25.40;99.90;;;;;;5136063;27;19938;-76
2021/06/03 09:44:23;;;;;;;;;;;25.50;99.90;;;;;;5136465;27;19915;-76
2021/06/03 09:46:53;;;;;;;;;;;25.50;99.90;;;;;;5136501;27;19983;-74
2021/06/03 09:49:22;;;;;;;;;;;25.50;99.90;;;;;;5135965;27;20364;-76
2021/06/03 09:51:49;;;;;;;;;;;25.50;99.90;;;;;;5136812;27;19945;-75
2021/06/03 09:54:16;;;;;;;;;;;25.60;99.90;;;;;;5136555;27;19911;-74
2021/06/03 09:56:43;;;;;;;;;;;25.60;99.90;;;;;;5135642;27;20301;-76
2021/06/03 09:59:16;;;;;;;;;;;25.60;99.90;;;;;;5136590;27;19910;-75
2021/06/03 10:01:43;;;;;;;;;;;25.50;99.90;;;;;;5136447;27;19908;-75
2021/06/03 10:04:09;;;;;;;;;;;25.50;99.90;;;;;;5135676;27;19911;-75
2021/06/03 10:06:55;;;;;;;;;;;25.70;99.90;;;;;;5136274;27;19994;-76
2021/06/03 10:09:37;;;;;;;;;;;25.80;99.90;;;;;;5117725;27;19971;-75
2021/06/03 10:12:03;;;;;;;;;;;25.90;99.90;;;;;;5136372;27;19903;-75
2021/06/03 10:14:28;;;;;;;;;;;26.00;99.90;;;;;;5135372;27;19930;-76
2021/06/03 10:16:54;;;;;;;;;;;26.10;99.90;;;;;;5135353;27;19999;-76
2021/06/03 10:19:20;;;;;;;;;;;26.10;99.90;;;;;;5136126;27;19934;-76
2021/06/03 10:22:05;;;;;;;;;;;26.10;99.90;;;;;;5135902;27;19930;-75
2021/06/03 10:24:57;;;;;;;;;;;26.20;99.90;;;;;;5134908;27;19964;-76
2021/06/03 10:27:24;;;;;;;;;;;26.40;99.90;;;;;;5032442;28;19905;-75
2021/06/03 10:29:50;;;;;;;;;;;26.50;99.60;;;;;;5132937;27;20331;-76
2021/06/03 10:32:17;;;;;;;;;;;26.50;99.60;;;;;;5135096;27;19903;-76
2021/06/03 10:34:44;;;;;;;;;;;26.70;98.70;;;;;;5135958;27;19978;-75
2021/06/03 10:37:10;;;;;;;;;;;26.60;98.30;;;;;;5135968;27;20334;-76
2021/06/03 10:39:37;;;;;;;;;;;26.70;97.90;;;;;;5135241;27;19927;-76
2021/06/03 10:42:03;;;;;;;;;;;26.70;97.80;;;;;;5135704;27;19911;-76
2021/06/03 10:44:29;;;;;;;;;;;26.60;97.70;;;;;;5134872;27;19919;-76
2021/06/03 10:46:55;;;;;;;;;;;26.70;97.60;;;;;;5135685;27;19910;-76
2021/06/03 10:49:21;;;;;;;;;;;26.70;97.30;;;;;;5135754;27;20000;-76
2021/06/03 10:51:47;;;;;;;;;;;26.80;97.50;;;;;;5135979;27;19908;-74
2021/06/03 10:54:13;;;;;;;;;;;26.80;97.90;;;;;;5135449;27;20284;-75
2021/06/03 10:56:38;;;;;;;;;;;26.90;97.60;;;;;;5135077;27;20243;-75
2021/06/03 10:59:24;;;;;;;;;;;27.00;97.60;;;;;;5134937;27;19907;-74
2021/06/03 11:01:50;;;;;;;;;;;27.00;97.80;;;;;;5135046;27;19986;-76
2021/06/03 11:04:25;;;;;;;;;;;26.90;97.20;;;;;;5135279;27;19972;-73
2021/06/03 11:06:51;;;;;;;;;;;26.90;96.70;;;;;;5134668;27;19953;-74
2021/06/03 11:09:24;;;;;;;;;;;26.80;97.10;;;;;;5135287;27;19903;-74
2021/06/03 11:12:04;;;;;;;;;;;26.80;96.40;;;;;;5135246;27;19903;-74
2021/06/03 11:14:30;;;;;;;;;;;26.80;96.70;;;;;;5134561;27;19910;-75
2021/06/03 11:16:55;;;;;;;;;;;26.90;97.30;;;;;;5135337;27;19939;-75
2021/06/03 11:19:30;;;;;;;;;;;27.00;96.70;;;;;;5135105;27;19904;-75
2021/06/03 11:22:05;;;;;;;;;;;27.00;96.90;;;;;;5115803;27;19903;-75
2021/06/03 11:24:35;;;;;;;;;;;27.10;96.90;;;;;;5134598;27;20010;-75
2021/06/03 11:27:01;;;;;;;;;;;27.20;97.00;;;;;;5134825;27;19956;-76
2021/06/03 11:29:30;;;;;;;;;;;27.10;96.40;;;;;;5134809;27;20006;-74
2021/06/03 11:32:05;;;;;;;;;;;27.20;97.30;;;;;;5134870;27;19942;-75
2021/06/03 11:34:42;;;;;;;;;;;27.40;96.80;;;;;;5133858;27;20085;-74
2021/06/03 11:37:08;;;;;;;;;;;27.60;96.50;;;;;;5134567;27;19911;-74
2021/06/03 11:39:34;;;;;;;;;;;27.80;96.20;;;;;;5134475;27;19915;-74
2021/06/03 11:42:15;;;;;;;;;;;28.10;95.10;;;;;;5133714;27;19903;-76
2021/06/03 11:44:59;;;;;;;;;;;28.20;95.00;;;;;;5134302;27;20002;-76
2021/06/03 11:47:24;;;;;;;;;;;28.30;94.50;;;;;;5134324;27;19930;-74
2021/06/03 11:49:50;;;;;;;;;;;28.30;94.20;;;;;;5133505;27;20304;-76
2021/06/03 11:52:17;;;;;;;;;;;28.10;94.20;;;;;;5134171;27;19903;-75
2021/06/03 11:55:03;;;;;;;;;;;28.10;93.80;;;;;;5134441;27;19904;-76
2021/06/03 11:57:30;;;;;;;;;;;28.00;94.00;;;;;;5134354;27;19926;-76
2021/06/03 12:00:07;;;;;;;;;;;27.90;93.80;;;;;;5134077;27;19903;-76
2021/06/03 12:02:34;;;;;;;;;;;27.90;93.80;;;;;;5133697;27;19926;-76
2021/06/03 12:05:09;;;;;;;;;;;27.70;94.60;;;;;;5134000;27;19972;-75
2021/06/03 12:07:54;;;;;;;;;;;27.50;94.90;;;;;;5134501;27;19907;-76
2021/06/03 12:10:28;;;;;;;;;;;27.30;95.30;;;;;;5133130;28;19907;-75
2021/06/03 12:12:54;;;;;;;;;;;27.30;96.30;;;;;;5134187;28;19907;-74
2021/06/03 12:15:20;;;;;;;;;;;27.30;96.50;;;;;;5134491;28;19961;-74
2021/06/03 12:17:46;;;;;;;;;;;27.30;95.20;;;;;;5133924;28;20331;-76
2021/06/03 12:20:14;;;;;;;;;;;27.30;95.30;;;;;;5135227;28;19903;-75
2021/06/03 12:22:40;;;;;;;;;;;27.20;96.10;;;;;;5135130;28;20012;-76
2021/06/03 12:25:05;;;;;;;;;;;27.20;95.70;;;;;;5133845;28;20006;-76
2021/06/03 12:27:32;;;;;;;;;;;27.20;95.40;;;;;;5134207;28;19972;-76
2021/06/03 12:30:12;;;;;;;;;;;27.20;95.70;;;;;;5133186;28;19904;-76
2021/06/03 12:32:38;;;;;;;;;;;27.40;94.80;;;;;;5133776;28;20305;-76
2021/06/03 12:35:04;;;;;;;;;;;27.50;95.00;;;;;;5134008;28;19907;-76
2021/06/03 12:37:31;;;;;;;;;;;27.70;94.40;;;;;;5134204;27;19954;-75
2021/06/03 12:39:58;;;;;;;;;;;27.90;94.00;;;;;;5138493;27;19965;-75
2021/06/03 12:42:25;;;;;;;;;;;28.00;93.50;;;;;;5138278;27;19994;-76
2021/06/03 12:44:52;;;;;;;;;;;27.90;93.00;;;;;;5137085;27;19962;-75
2021/06/03 12:47:17;;;;;;;;;;;27.70;93.30;;;;;;5138285;27;19903;-75
2021/06/03 12:49:43;;;;;;;;;;;27.60;94.30;;;;;;5138127;27;20002;-76
2021/06/03 12:52:09;;;;;;;;;;;27.50;94.20;;;;;;5136926;27;19903;-76
2021/06/03 12:54:36;;;;;;;;;;;27.40;94.50;;;;;;5138070;27;19942;-76
2021/06/03 12:57:06;;;;;;;;;;;27.50;94.20;;;;;;5137885;27;19903;-76
2021/06/03 12:59:33;;;;;;;;;;;27.60;93.80;;;;;;5136998;27;19903;-75
2021/06/03 13:02:00;;;;;;;;;;;27.70;93.70;;;;;;5137742;27;20335;-75
2021/06/03 13:04:33;;;;;;;;;;;27.70;93.40;;;;;;5137917;27;20009;-74
2021/06/03 13:06:59;;;;;;;;;;;27.80;93.30;;;;;;5137507;27;19903;-74
2021/06/03 13:09:25;;;;;;;;;;;28.00;93.90;;;;;;5138242;27;19903;-76
2021/06/03 13:11:50;;;;;;;;;;;28.20;92.80;;;;;;5138112;27;19911;-76
2021/06/03 13:14:20;;;;;;;;;;;28.20;91.60;;;;;;5137627;27;19914;-75
2021/06/03 13:16:46;;;;;;;;;;;28.20;91.70;;;;;;5137835;27;19909;-76
2021/06/03 13:19:13;;;;;;;;;;;28.00;91.50;;;;;;5137147;27;19929;-75
2021/06/03 13:21:42;;;;;;;;;;;27.90;91.80;;;;;;5138007;27;19928;-76
2021/06/03 13:24:17;;;;;;;;;;;28.00;92.40;;;;;;5137766;27;19904;-76
2021/06/03 13:26:43;;;;;;;;;;;28.10;92.60;;;;;;5136956;27;19903;-76
2021/06/03 13:29:08;;;;;;;;;;;28.30;91.70;;;;;;5137320;27;20255;-74
2021/06/03 13:31:34;;;;;;;;;;;28.40;91.10;;;;;;5137296;27;19911;-74
2021/06/03 13:33:59;;;;;;;;;;;28.50;90.70;;;;;;5136259;27;19915;-74
2021/06/03 13:36:26;;;;;;;;;;;28.50;90.70;;;;;;5137697;27;19948;-73
2021/06/03 13:38:51;;;;;;;;;;;28.60;91.20;;;;;;5118162;27;19949;-74
2021/06/03 13:41:17;;;;;;;;;;;28.70;91.40;;;;;;5136092;27;19907;-75
2021/06/03 13:43:43;;;;;;;;;;;28.70;90.60;;;;;;5136513;27;19904;-74
2021/06/03 13:46:11;;;;;;;;;;;28.70;90.30;;;;;;5136294;27;19964;-76
2021/06/03 13:48:41;;;;;;;;;;;28.60;90.00;;;;;;5135180;27;19908;-76
2021/06/03 13:51:12;;;;;;;;;;;28.40;90.00;;;;;;5135699;27;19907;-76
2021/06/03 13:53:38;;;;;;;;;;;28.20;90.60;;;;;;5136725;27;19904;-74
2021/06/03 13:56:11;;;;;;;;;;;28.00;91.20;;;;;;5135963;27;19907;-76
2021/06/03 13:58:39;;;;;;;;;;;27.80;91.60;;;;;;5136022;27;19918;-76
2021/06/03 14:01:11;;;;;;;;;;;27.50;92.10;;;;;;5136460;27;19909;-75
2021/06/03 14:03:41;;;;;;;;;;;27.30;92.20;;;;;;5135766;27;19903;-76
2021/06/03 14:06:07;;;;;;;;;;;27.20;92.70;;;;;;5136233;27;19911;-76
2021/06/03 14:08:37;;;;;;;;;;;27.00;92.80;;;;;;5135382;27;19904;-75
2021/06/03 14:11:06;;;;;;;;;;;27.00;93.30;;;;;;5136286;27;19903;-76
2021/06/03 14:13:45;;;;;;;;;;;26.90;93.40;;;;;;5135602;27;20365;-76
2021/06/03 14:16:10;;;;;;;;;;;26.90;92.90;;;;;;5135028;27;19949;-74